createdAt,value
2023-02-20T05:41:21.559Z,2.92
2023-02-20T05:44:24.526Z,3.05
2023-02-20T05:47:27.334Z,3.16
2023-02-20T05:50:30.472Z,3.09
2023-02-20T05:53:33.459Z,3.11
2023-02-20T05:56:36.075Z,3.23
2023-02-20T05:59:38.618Z,3.51
2023-02-20T06:02:41.379Z,3.44
2023-02-20T06:05:44.465Z,3.39
2023-02-20T06:08:47.678Z,3.40
2023-02-20T06:11:52.519Z,3.45
2023-02-20T06:14:55.739Z,3.38
2023-02-20T06:17:58.775Z,3.48
2023-02-20T06:21:01.395Z,3.71
2023-02-20T06:24:04.070Z,3.69
2023-02-20T06:27:08.733Z,3.71
2023-02-20T06:30:11.934Z,3.75
2023-02-20T06:33:14.503Z,3.74
2023-02-20T06:36:23.657Z,3.81
2023-02-20T06:39:26.233Z,3.84
2023-02-20T06:42:28.840Z,4.08
2023-02-20T06:45:31.399Z,4.15
2023-02-20T06:48:33.948Z,4.03
2023-02-20T06:51:37.056Z,4.29
2023-02-20T06:54:40.621Z,4.43
2023-02-20T06:57:47.736Z,4.45
2023-02-20T07:01:06.329Z,4.48
2023-02-20T07:04:24.111Z,4.51
2023-02-20T07:07:27.962Z,4.60
2023-02-20T07:10:30.504Z,4.71
2023-02-20T07:13:33.010Z,4.70
2023-02-20T07:16:35.693Z,4.69
2023-02-20T07:19:38.184Z,4.94
2023-02-20T07:22:41.025Z,5.02
2023-02-20T07:25:44.214Z,4.91
2023-02-20T07:28:46.921Z,4.78
2023-02-20T07:31:49.606Z,4.73
2023-02-20T07:35:03.586Z,4.64
2023-02-20T07:38:07.363Z,4.66
2023-02-20T07:41:10.251Z,5.06
2023-02-20T07:44:15.016Z,4.94
2023-02-20T07:47:17.619Z,4.83
2023-02-20T07:50:20.128Z,4.93
2023-02-20T07:53:22.806Z,4.74
2023-02-20T07:56:25.385Z,4.91
2023-02-20T07:59:27.991Z,5.03
2023-02-20T08:02:30.583Z,5.04
2023-02-20T08:05:48.151Z,5.26
2023-02-20T08:08:51.700Z,5.56
2023-02-20T08:11:54.273Z,5.57
2023-02-20T08:14:57.359Z,5.29
2023-02-20T08:17:59.983Z,5.32
2023-02-20T08:21:02.674Z,5.61
2023-02-20T08:24:06.581Z,5.61
2023-02-20T08:27:09.155Z,5.73
2023-02-20T08:30:17.297Z,5.79
2023-02-20T08:33:20.123Z,5.90
2023-02-20T08:36:22.720Z,6.13
2023-02-20T08:39:33.630Z,6.51
2023-02-20T08:42:36.936Z,6.37
2023-02-20T08:45:39.637Z,6.64
2023-02-20T08:48:42.280Z,6.53
2023-02-20T08:51:48.542Z,6.60
2023-02-20T08:54:51.215Z,6.45
2023-02-20T08:57:53.859Z,6.69
2023-02-20T09:00:56.578Z,6.71
2023-02-20T09:03:59.224Z,6.89
2023-02-20T09:07:01.804Z,6.96
2023-02-20T09:10:04.421Z,6.99
2023-02-20T09:13:07.031Z,7.32
2023-02-20T09:16:09.692Z,7.06
2023-02-20T09:19:14.118Z,7.05
2023-02-20T09:26:04.878Z,7.22
2023-02-20T09:29:07.592Z,7.47
2023-02-20T09:32:11.218Z,7.81
2023-02-20T09:35:27.899Z,7.76
2023-02-20T09:38:31.003Z,7.98
2023-02-20T09:41:58.085Z,8.01
2023-02-20T09:45:26.914Z,8.13
2023-02-20T09:48:31.967Z,7.98
2023-02-20T09:51:36.844Z,7.67
2023-02-20T09:54:42.946Z,7.67
2023-02-20T09:57:49.953Z,7.76
2023-02-20T10:00:52.692Z,7.67
2023-02-20T10:03:59.651Z,7.60
2023-02-20T10:07:27.020Z,7.64
2023-02-20T10:10:34.336Z,7.66
2023-02-20T10:13:46.141Z,7.74
2023-02-20T10:16:59.652Z,7.82
2023-02-20T10:20:30.098Z,7.89
2023-02-20T10:24:04.876Z,8.07
2023-02-20T10:27:45.799Z,7.89
2023-02-20T10:30:58.261Z,8.18
2023-02-20T10:34:12.846Z,8.15
2023-02-20T10:37:17.533Z,8.31
2023-02-20T10:40:26.321Z,8.43
2023-02-20T10:43:38.816Z,8.37
2023-02-20T10:46:53.309Z,8.38
2023-02-20T10:49:58.566Z,8.36
2023-02-20T10:53:19.235Z,8.52
2023-02-20T10:56:35.960Z,8.45
2023-02-20T10:59:49.956Z,8.63
2023-02-20T11:02:57.890Z,8.57
2023-02-20T11:06:01.842Z,8.72
2023-02-20T11:09:04.556Z,8.83
2023-02-20T11:12:07.380Z,9.09
2023-02-20T11:15:18.759Z,9.11
2023-02-20T11:18:32.959Z,9.27
2023-02-20T11:21:40.635Z,9.48
2023-02-20T11:27:54.583Z,9.79
2023-02-20T11:31:05.529Z,9.84
2023-02-20T11:34:20.508Z,10.06
2023-02-20T11:37:23.416Z,10.22
2023-02-20T11:40:32.887Z,10.18
2023-02-20T11:43:43.655Z,10.46
2023-02-20T11:46:48.770Z,10.22
2023-02-20T11:49:56.703Z,10.34
2023-02-20T11:53:08.042Z,10.38
2023-02-20T11:56:12.836Z,10.25
2023-02-20T11:59:42.527Z,10.26
2023-02-20T12:02:55.472Z,10.31
2023-02-20T12:05:58.272Z,10.22
2023-02-20T12:09:02.181Z,10.36
2023-02-20T12:12:05.532Z,10.41
2023-02-20T12:15:19.129Z,10.48
2023-02-20T12:18:43.033Z,10.45
2023-02-20T12:22:24.269Z,10.55
2023-02-20T12:25:27.665Z,10.68
2023-02-20T12:28:34.406Z,10.56
2023-02-20T12:31:42.933Z,10.65
2023-02-20T12:34:54.992Z,10.65
2023-02-20T12:38:29.018Z,10.68
2023-02-20T12:42:01.523Z,10.82
2023-02-20T12:45:13.608Z,10.95
2023-02-20T12:48:31.642Z,11.03
2023-02-20T12:51:39.351Z,11.22
2023-02-20T12:54:53.910Z,11.28
2023-02-20T12:58:06.447Z,11.45
2023-02-20T13:01:13.285Z,11.66
2023-02-20T13:04:40.536Z,11.72
2023-02-20T13:07:51.906Z,11.85
2023-02-20T13:11:02.836Z,11.99
2023-02-20T13:14:14.416Z,12.14
2023-02-20T13:17:47.388Z,12.24
2023-02-20T13:20:52.727Z,12.27
2023-02-20T13:23:55.010Z,12.46
2023-02-20T13:27:06.992Z,12.30
2023-02-20T13:30:20.984Z,12.27
2023-02-20T13:33:28.002Z,12.33
2023-02-20T13:36:30.458Z,12.15
2023-02-20T13:39:33.821Z,12.24
2023-02-20T13:42:36.529Z,12.04
2023-02-20T13:45:42.466Z,11.96
2023-02-20T13:48:50.086Z,11.91
2023-02-20T13:51:52.692Z,11.93
2023-02-20T13:55:13.524Z,11.94
2023-02-20T13:58:16.475Z,12.01
2023-02-20T14:01:19.089Z,12.12
2023-02-20T14:04:22.022Z,11.98
2023-02-20T14:07:39.617Z,12.04
2023-02-20T14:10:45.980Z,11.93
2023-02-20T14:13:49.735Z,11.94
2023-02-20T14:16:52.437Z,11.99
2023-02-20T14:20:13.521Z,12.03
2023-02-20T14:23:19.544Z,12.08
2023-02-20T14:26:27.388Z,12.10
2023-02-20T14:29:34.116Z,12.03
2023-02-20T14:32:36.930Z,11.93
2023-02-20T14:36:13.345Z,11.78
2023-02-20T14:39:34.437Z,11.72
2023-02-20T14:42:39.735Z,11.67
2023-02-20T14:45:42.136Z,11.66
2023-02-20T14:48:44.645Z,11.69
2023-02-20T14:51:47.467Z,11.80
2023-02-20T14:54:58.692Z,11.71
2023-02-20T14:58:07.882Z,11.65
2023-02-20T15:01:28.846Z,11.44
2023-02-20T15:04:31.447Z,11.51
2023-02-20T15:07:34.581Z,11.59
2023-02-20T15:10:39.073Z,11.34
2023-02-20T15:13:43.338Z,11.33
2023-02-20T15:16:45.845Z,11.28
2023-02-20T15:19:48.688Z,11.33
2023-02-20T15:22:51.689Z,11.24
2023-02-20T15:25:54.462Z,11.21
2023-02-20T15:29:19.935Z,11.32
2023-02-20T15:32:26.545Z,11.15
2023-02-20T15:35:30.524Z,11.18
2023-02-20T15:38:37.002Z,11.05
2023-02-20T15:41:40.627Z,11.12
2023-02-20T15:44:43.223Z,11.08
2023-02-20T15:47:45.745Z,11.06
2023-02-20T15:50:48.874Z,10.89
2023-02-20T15:53:51.971Z,10.94
2023-02-20T15:56:54.625Z,10.95
2023-02-20T15:59:58.523Z,10.77
2023-02-20T16:03:04.413Z,10.69
2023-02-20T16:06:07.400Z,10.64
2023-02-20T16:09:10.344Z,10.61
